sensor_id;sensor_type;location;lat;lon;timestamp;P1;durP1;ratioP1;P2;durP2;ratioP2
56999;SDS011;42891;50.006;21.964;2023-03-13T00:00:37;65.53;;;30.83;;
56999;SDS011;42891;50.006;21.964;2023-03-13T00:04:37;44.88;;;22.13;;
56999;SDS011;42891;50.006;21.964;2023-03-13T00:08:37;44.63;;;20.27;;
56999;SDS011;42891;50.006;21.964;2023-03-13T00:12:38;31.00;;;15.65;;
56999;SDS011;42891;50.006;21.964;2023-03-13T00:16:38;33.90;;;16.67;;
56999;SDS011;42891;50.006;21.964;2023-03-13T00:20:38;34.30;;;16.50;;
56999;SDS011;42891;50.006;21.964;2023-03-13T00:24:39;32.10;;;14.95;;
56999;SDS011;42891;50.006;21.964;2023-03-13T00:28:39;25.33;;;12.82;;
56999;SDS011;42891;50.006;21.964;2023-03-13T00:32:41;28.92;;;13.18;;
56999;SDS011;42891;50.006;21.964;2023-03-13T00:36:42;20.63;;;10.73;;
56999;SDS011;42891;50.006;21.964;2023-03-13T00:40:42;25.17;;;11.63;;
56999;SDS011;42891;50.006;21.964;2023-03-13T00:44:42;17.40;;;8.80;;
56999;SDS011;42891;50.006;21.964;2023-03-13T00:48:43;21.15;;;10.32;;
56999;SDS011;42891;50.006;21.964;2023-03-13T00:52:43;18.63;;;9.32;;
56999;SDS011;42891;50.006;21.964;2023-03-13T00:56:43;16.90;;;8.57;;
56999;SDS011;42891;50.006;21.964;2023-03-13T01:00:44;16.60;;;8.50;;
56999;SDS011;42891;50.006;21.964;2023-03-13T01:04:44;15.95;;;8.32;;
56999;SDS011;42891;50.006;21.964;2023-03-13T01:08:44;13.40;;;7.07;;
56999;SDS011;42891;50.006;21.964;2023-03-13T01:12:45;12.90;;;7.60;;
56999;SDS011;42891;50.006;21.964;2023-03-13T01:16:45;12.80;;;7.65;;
56999;SDS011;42891;50.006;21.964;2023-03-13T01:20:46;11.00;;;6.70;;
56999;SDS011;42891;50.006;21.964;2023-03-13T01:24:46;10.82;;;5.82;;
56999;SDS011;42891;50.006;21.964;2023-03-13T01:28:51;8.73;;;4.80;;
56999;SDS011;42891;50.006;21.964;2023-03-13T01:32:51;9.10;;;5.30;;
56999;SDS011;42891;50.006;21.964;2023-03-13T01:36:51;10.80;;;5.40;;
56999;SDS011;42891;50.006;21.964;2023-03-13T01:40:52;9.57;;;5.00;;
56999;SDS011;42891;50.006;21.964;2023-03-13T01:44:56;7.80;;;5.15;;
56999;SDS011;42891;50.006;21.964;2023-03-13T01:57:45;5.30;;;3.97;;
56999;SDS011;42891;50.006;21.964;2023-03-13T02:01:28;8.27;;;5.07;;
56999;SDS011;42891;50.006;21.964;2023-03-13T02:05:29;9.25;;;5.50;;
56999;SDS011;42891;50.006;21.964;2023-03-13T02:09:30;10.07;;;5.97;;
56999;SDS011;42891;50.006;21.964;2023-03-13T02:13:33;11.32;;;6.63;;
56999;SDS011;42891;50.006;21.964;2023-03-13T02:17:33;13.63;;;6.70;;
56999;SDS011;42891;50.006;21.964;2023-03-13T02:21:37;10.90;;;6.13;;
56999;SDS011;42891;50.006;21.964;2023-03-13T02:25:46;8.93;;;6.32;;
56999;SDS011;42891;50.006;21.964;2023-03-13T02:29:48;11.18;;;6.50;;
56999;SDS011;42891;50.006;21.964;2023-03-13T02:33:50;12.30;;;5.63;;
56999;SDS011;42891;50.006;21.964;2023-03-13T02:37:52;14.05;;;5.38;;
56999;SDS011;42891;50.006;21.964;2023-03-13T02:41:56;14.07;;;5.72;;
56999;SDS011;42891;50.006;21.964;2023-03-13T02:46:08;9.68;;;5.22;;
56999;SDS011;42891;50.006;21.964;2023-03-13T02:54:18;7.22;;;5.05;;
56999;SDS011;42891;50.006;21.964;2023-03-13T02:58:22;8.98;;;5.18;;
56999;SDS011;42891;50.006;21.964;2023-03-13T03:02:23;6.93;;;5.15;;
56999;SDS011;42891;50.006;21.964;2023-03-13T03:06:24;8.05;;;5.80;;
56999;SDS011;42891;50.006;21.964;2023-03-13T03:10:24;8.82;;;5.32;;
56999;SDS011;42891;50.006;21.964;2023-03-13T03:14:25;8.13;;;5.32;;
56999;SDS011;42891;50.006;21.964;2023-03-13T03:18:25;7.22;;;5.00;;
56999;SDS011;42891;50.006;21.964;2023-03-13T03:22:25;8.57;;;4.87;;
56999;SDS011;42891;50.006;21.964;2023-03-13T03:26:26;8.60;;;5.75;;
56999;SDS011;42891;50.006;21.964;2023-03-13T03:30:26;7.43;;;4.65;;
56999;SDS011;42891;50.006;21.964;2023-03-13T03:34:26;7.82;;;4.50;;
56999;SDS011;42891;50.006;21.964;2023-03-13T03:38:26;7.53;;;4.40;;
56999;SDS011;42891;50.006;21.964;2023-03-13T03:42:27;6.88;;;5.00;;
56999;SDS011;42891;50.006;21.964;2023-03-13T03:46:27;6.15;;;4.82;;
56999;SDS011;42891;50.006;21.964;2023-03-13T03:50:28;6.50;;;4.65;;
56999;SDS011;42891;50.006;21.964;2023-03-13T03:54:28;6.90;;;4.65;;
56999;SDS011;42891;50.006;21.964;2023-03-13T03:58:28;7.10;;;4.50;;
56999;SDS011;42891;50.006;21.964;2023-03-13T04:02:29;6.47;;;4.70;;
56999;SDS011;42891;50.006;21.964;2023-03-13T04:06:29;7.27;;;4.57;;
56999;SDS011;42891;50.006;21.964;2023-03-13T04:10:29;7.50;;;4.40;;
56999;SDS011;42891;50.006;21.964;2023-03-13T04:14:30;6.38;;;4.60;;
56999;SDS011;42891;50.006;21.964;2023-03-13T04:18:30;7.72;;;4.63;;
56999;SDS011;42891;50.006;21.964;2023-03-13T04:22:31;7.10;;;4.77;;
56999;SDS011;42891;50.006;21.964;2023-03-13T04:26:32;8.15;;;4.60;;
56999;SDS011;42891;50.006;21.964;2023-03-13T04:30:32;6.35;;;4.70;;
56999;SDS011;42891;50.006;21.964;2023-03-13T04:34:32;6.97;;;5.10;;
56999;SDS011;42891;50.006;21.964;2023-03-13T04:38:33;8.25;;;5.38;;
56999;SDS011;42891;50.006;21.964;2023-03-13T04:42:33;7.40;;;5.43;;
56999;SDS011;42891;50.006;21.964;2023-03-13T04:46:34;9.43;;;5.57;;
56999;SDS011;42891;50.006;21.964;2023-03-13T04:50:34;8.60;;;5.57;;
56999;SDS011;42891;50.006;21.964;2023-03-13T04:54:34;9.40;;;5.68;;
56999;SDS011;42891;50.006;21.964;2023-03-13T04:58:34;9.10;;;5.60;;
56999;SDS011;42891;50.006;21.964;2023-03-13T05:02:35;8.80;;;5.38;;
56999;SDS011;42891;50.006;21.964;2023-03-13T05:06:35;7.78;;;5.50;;
56999;SDS011;42891;50.006;21.964;2023-03-13T05:10:35;8.45;;;5.28;;
56999;SDS011;42891;50.006;21.964;2023-03-13T05:14:36;8.75;;;5.75;;
56999;SDS011;42891;50.006;21.964;2023-03-13T05:18:36;12.95;;;9.20;;
56999;SDS011;42891;50.006;21.964;2023-03-13T05:22:38;15.45;;;9.63;;
56999;SDS011;42891;50.006;21.964;2023-03-13T05:26:38;7.60;;;5.75;;
56999;SDS011;42891;50.006;21.964;2023-03-13T05:30:38;8.98;;;5.78;;
56999;SDS011;42891;50.006;21.964;2023-03-13T05:34:38;8.75;;;5.70;;
56999;SDS011;42891;50.006;21.964;2023-03-13T05:38:39;9.70;;;5.80;;
56999;SDS011;42891;50.006;21.964;2023-03-13T05:42:39;9.52;;;5.88;;
56999;SDS011;42891;50.006;21.964;2023-03-13T05:46:40;10.75;;;6.63;;
56999;SDS011;42891;50.006;21.964;2023-03-13T05:50:40;8.37;;;6.00;;
56999;SDS011;42891;50.006;21.964;2023-03-13T05:54:40;9.18;;;5.78;;
56999;SDS011;42891;50.006;21.964;2023-03-13T05:58:40;8.20;;;6.07;;
56999;SDS011;42891;50.006;21.964;2023-03-13T06:02:41;10.13;;;6.63;;
56999;SDS011;42891;50.006;21.964;2023-03-13T06:06:42;8.80;;;6.72;;
56999;SDS011;42891;50.006;21.964;2023-03-13T06:10:42;9.03;;;6.10;;
56999;SDS011;42891;50.006;21.964;2023-03-13T06:14:42;8.60;;;5.80;;
56999;SDS011;42891;50.006;21.964;2023-03-13T06:18:43;9.90;;;6.55;;
56999;SDS011;42891;50.006;21.964;2023-03-13T06:22:44;9.23;;;4.97;;
56999;SDS011;42891;50.006;21.964;2023-03-13T06:26:46;9.30;;;5.88;;
56999;SDS011;42891;50.006;21.964;2023-03-13T06:30:47;7.70;;;5.65;;
56999;SDS011;42891;50.006;21.964;2023-03-13T06:34:47;9.13;;;6.20;;
56999;SDS011;42891;50.006;21.964;2023-03-13T06:38:48;10.15;;;5.65;;
56999;SDS011;42891;50.006;21.964;2023-03-13T06:42:48;12.68;;;6.63;;
56999;SDS011;42891;50.006;21.964;2023-03-13T06:46:49;12.77;;;8.03;;
56999;SDS011;42891;50.006;21.964;2023-03-13T06:50:51;19.50;;;9.85;;
56999;SDS011;42891;50.006;21.964;2023-03-13T06:54:53;17.63;;;9.35;;
56999;SDS011;42891;50.006;21.964;2023-03-13T06:58:53;16.90;;;8.97;;
56999;SDS011;42891;50.006;21.964;2023-03-13T07:02:53;10.05;;;6.95;;
56999;SDS011;42891;50.006;21.964;2023-03-13T07:06:54;13.90;;;8.30;;
56999;SDS011;42891;50.006;21.964;2023-03-13T07:10:58;13.30;;;7.87;;
56999;SDS011;42891;50.006;21.964;2023-03-13T07:14:59;13.65;;;6.82;;
56999;SDS011;42891;50.006;21.964;2023-03-13T07:19:00;13.68;;;7.90;;
56999;SDS011;42891;50.006;21.964;2023-03-13T07:23:00;10.07;;;6.85;;
56999;SDS011;42891;50.006;21.964;2023-03-13T07:27:00;12.50;;;7.47;;
56999;SDS011;42891;50.006;21.964;2023-03-13T07:31:04;11.40;;;7.88;;
56999;SDS011;42891;50.006;21.964;2023-03-13T07:35:11;10.98;;;7.55;;
56999;SDS011;42891;50.006;21.964;2023-03-13T07:39:11;11.97;;;7.37;;
56999;SDS011;42891;50.006;21.964;2023-03-13T07:43:11;9.93;;;7.27;;
56999;SDS011;42891;50.006;21.964;2023-03-13T07:47:12;13.83;;;7.33;;
56999;SDS011;42891;50.006;21.964;2023-03-13T07:51:13;12.50;;;8.00;;
56999;SDS011;42891;50.006;21.964;2023-03-13T07:55:16;10.75;;;7.20;;
56999;SDS011;42891;50.006;21.964;2023-03-13T07:59:16;12.45;;;7.32;;
56999;SDS011;42891;50.006;21.964;2023-03-13T08:03:16;9.77;;;6.93;;
56999;SDS011;42891;50.006;21.964;2023-03-13T08:07:17;13.00;;;7.43;;
56999;SDS011;42891;50.006;21.964;2023-03-13T08:11:18;9.63;;;6.72;;
56999;SDS011;42891;50.006;21.964;2023-03-13T08:15:21;11.90;;;7.75;;
56999;SDS011;42891;50.006;21.964;2023-03-13T08:19:25;20.88;;;11.00;;
56999;SDS011;42891;50.006;21.964;2023-03-13T08:23:25;9.90;;;7.25;;
56999;SDS011;42891;50.006;21.964;2023-03-13T08:27:27;9.95;;;7.10;;
56999;SDS011;42891;50.006;21.964;2023-03-13T08:31:29;9.40;;;7.28;;
56999;SDS011;42891;50.006;21.964;2023-03-13T08:35:31;13.15;;;8.18;;
56999;SDS011;42891;50.006;21.964;2023-03-13T08:39:32;12.63;;;7.83;;
56999;SDS011;42891;50.006;21.964;2023-03-13T08:43:32;13.73;;;8.05;;
56999;SDS011;42891;50.006;21.964;2023-03-13T08:47:32;11.97;;;7.80;;
56999;SDS011;42891;50.006;21.964;2023-03-13T08:51:33;11.52;;;7.10;;
56999;SDS011;42891;50.006;21.964;2023-03-13T08:55:34;9.38;;;6.88;;
56999;SDS011;42891;50.006;21.964;2023-03-13T08:59:34;8.93;;;6.90;;
56999;SDS011;42891;50.006;21.964;2023-03-13T09:03:35;8.40;;;6.73;;
56999;SDS011;42891;50.006;21.964;2023-03-13T09:07:35;8.55;;;6.15;;
56999;SDS011;42891;50.006;21.964;2023-03-13T09:11:37;8.85;;;5.75;;
56999;SDS011;42891;50.006;21.964;2023-03-13T09:15:38;8.88;;;6.50;;
56999;SDS011;42891;50.006;21.964;2023-03-13T09:19:38;8.60;;;6.10;;
56999;SDS011;42891;50.006;21.964;2023-03-13T09:23:38;13.02;;;6.80;;
56999;SDS011;42891;50.006;21.964;2023-03-13T09:27:39;9.15;;;7.63;;
56999;SDS011;42891;50.006;21.964;2023-03-13T09:31:40;9.98;;;6.70;;
56999;SDS011;42891;50.006;21.964;2023-03-13T09:35:40;8.52;;;5.60;;
56999;SDS011;42891;50.006;21.964;2023-03-13T09:39:41;12.57;;;6.25;;
56999;SDS011;42891;50.006;21.964;2023-03-13T09:43:43;11.47;;;7.27;;
56999;SDS011;42891;50.006;21.964;2023-03-13T09:48:03;9.05;;;6.28;;
56999;SDS011;42891;50.006;21.964;2023-03-13T09:52:18;7.85;;;5.60;;
56999;SDS011;42891;50.006;21.964;2023-03-13T09:56:23;10.05;;;6.03;;
56999;SDS011;42891;50.006;21.964;2023-03-13T10:04:34;9.27;;;6.05;;
56999;SDS011;42891;50.006;21.964;2023-03-13T10:08:41;8.75;;;6.20;;
56999;SDS011;42891;50.006;21.964;2023-03-13T10:12:45;11.00;;;7.03;;
56999;SDS011;42891;50.006;21.964;2023-03-13T10:16:53;11.57;;;6.18;;
56999;SDS011;42891;50.006;21.964;2023-03-13T10:21:00;7.18;;;6.15;;
56999;SDS011;42891;50.006;21.964;2023-03-13T10:25:24;9.40;;;6.40;;
56999;SDS011;42891;50.006;21.964;2023-03-13T10:29:29;9.95;;;6.35;;
56999;SDS011;42891;50.006;21.964;2023-03-13T10:33:30;9.75;;;6.68;;
56999;SDS011;42891;50.006;21.964;2023-03-13T10:37:34;11.52;;;7.18;;
56999;SDS011;42891;50.006;21.964;2023-03-13T10:41:41;10.38;;;6.28;;
56999;SDS011;42891;50.006;21.964;2023-03-13T10:45:41;9.48;;;6.15;;
56999;SDS011;42891;50.006;21.964;2023-03-13T10:49:48;12.75;;;7.03;;
56999;SDS011;42891;50.006;21.964;2023-03-13T10:53:56;10.40;;;6.43;;
56999;SDS011;42891;50.006;21.964;2023-03-13T10:58:00;13.07;;;7.20;;
56999;SDS011;42891;50.006;21.964;2023-03-13T11:02:02;13.70;;;6.25;;
56999;SDS011;42891;50.006;21.964;2023-03-13T11:06:02;10.73;;;6.85;;
56999;SDS011;42891;50.006;21.964;2023-03-13T11:14:16;9.43;;;6.95;;
56999;SDS011;42891;50.006;21.964;2023-03-13T11:18:23;12.63;;;7.35;;
56999;SDS011;42891;50.006;21.964;2023-03-13T11:22:39;10.73;;;6.93;;
56999;SDS011;42891;50.006;21.964;2023-03-13T11:26:50;9.85;;;6.65;;
56999;SDS011;42891;50.006;21.964;2023-03-13T11:31:11;10.50;;;6.00;;
56999;SDS011;42891;50.006;21.964;2023-03-13T11:39:42;8.93;;;5.93;;
56999;SDS011;42891;50.006;21.964;2023-03-13T11:53:11;9.88;;;7.05;;
56999;SDS011;42891;50.006;21.964;2023-03-13T11:57:24;9.73;;;6.80;;
56999;SDS011;42891;50.006;21.964;2023-03-13T12:01:31;13.15;;;8.02;;
56999;SDS011;42891;50.006;21.964;2023-03-13T12:05:44;12.40;;;6.85;;
56999;SDS011;42891;50.006;21.964;2023-03-13T12:09:55;9.90;;;6.15;;
56999;SDS011;42891;50.006;21.964;2023-03-13T12:14:01;10.57;;;7.00;;
56999;SDS011;42891;50.006;21.964;2023-03-13T12:22:24;8.45;;;6.15;;
56999;SDS011;42891;50.006;21.964;2023-03-13T12:30:38;8.65;;;6.47;;
56999;SDS011;42891;50.006;21.964;2023-03-13T12:39:09;10.18;;;6.15;;
56999;SDS011;42891;50.006;21.964;2023-03-13T12:43:23;9.75;;;6.25;;
56999;SDS011;42891;50.006;21.964;2023-03-13T12:47:31;8.05;;;5.82;;
56999;SDS011;42891;50.006;21.964;2023-03-13T13:01:00;10.50;;;5.80;;
56999;SDS011;42891;50.006;21.964;2023-03-13T13:05:03;10.50;;;5.82;;
56999;SDS011;42891;50.006;21.964;2023-03-13T13:09:12;9.38;;;6.10;;
56999;SDS011;42891;50.006;21.964;2023-03-13T13:13:17;8.25;;;5.60;;
56999;SDS011;42891;50.006;21.964;2023-03-13T13:21:38;7.93;;;5.45;;
56999;SDS011;42891;50.006;21.964;2023-03-13T13:25:38;8.80;;;5.37;;
56999;SDS011;42891;50.006;21.964;2023-03-13T13:33:39;6.93;;;5.60;;
56999;SDS011;42891;50.006;21.964;2023-03-13T13:37:40;12.27;;;5.90;;
56999;SDS011;42891;50.006;21.964;2023-03-13T13:41:41;12.32;;;6.10;;
56999;SDS011;42891;50.006;21.964;2023-03-13T13:45:53;8.43;;;5.80;;
56999;SDS011;42891;50.006;21.964;2023-03-13T13:49:59;7.50;;;5.57;;
56999;SDS011;42891;50.006;21.964;2023-03-13T13:58:42;8.65;;;5.68;;
56999;SDS011;42891;50.006;21.964;2023-03-13T14:02:51;10.57;;;6.20;;
56999;SDS011;42891;50.006;21.964;2023-03-13T14:06:53;7.07;;;5.72;;
56999;SDS011;42891;50.006;21.964;2023-03-13T14:15:39;11.60;;;6.00;;
56999;SDS011;42891;50.006;21.964;2023-03-13T14:19:42;11.10;;;7.22;;
56999;SDS011;42891;50.006;21.964;2023-03-13T14:23:43;10.40;;;6.72;;
56999;SDS011;42891;50.006;21.964;2023-03-13T14:27:46;10.27;;;7.03;;
56999;SDS011;42891;50.006;21.964;2023-03-13T14:31:57;10.63;;;7.15;;
56999;SDS011;42891;50.006;21.964;2023-03-13T14:35:58;13.98;;;7.35;;
56999;SDS011;42891;50.006;21.964;2023-03-13T14:40:09;12.70;;;7.82;;
56999;SDS011;42891;50.006;21.964;2023-03-13T14:44:23;12.75;;;8.05;;
56999;SDS011;42891;50.006;21.964;2023-03-13T14:48:31;11.98;;;7.78;;
56999;SDS011;42891;50.006;21.964;2023-03-13T14:52:32;16.98;;;9.93;;
56999;SDS011;42891;50.006;21.964;2023-03-13T14:56:37;13.10;;;9.05;;
56999;SDS011;42891;50.006;21.964;2023-03-13T15:00:41;13.88;;;9.02;;
56999;SDS011;42891;50.006;21.964;2023-03-13T15:04:50;11.27;;;7.50;;
56999;SDS011;42891;50.006;21.964;2023-03-13T15:13:22;16.17;;;7.63;;
56999;SDS011;42891;50.006;21.964;2023-03-13T15:17:25;12.45;;;8.52;;
56999;SDS011;42891;50.006;21.964;2023-03-13T15:21:28;11.48;;;7.93;;
56999;SDS011;42891;50.006;21.964;2023-03-13T15:25:30;11.20;;;8.20;;
56999;SDS011;42891;50.006;21.964;2023-03-13T15:29:30;13.82;;;8.45;;
56999;SDS011;42891;50.006;21.964;2023-03-13T15:33:30;15.33;;;10.23;;
56999;SDS011;42891;50.006;21.964;2023-03-13T15:37:31;11.52;;;8.32;;
56999;SDS011;42891;50.006;21.964;2023-03-13T15:41:31;16.08;;;11.70;;
56999;SDS011;42891;50.006;21.964;2023-03-13T15:45:31;39.88;;;22.38;;
56999;SDS011;42891;50.006;21.964;2023-03-13T15:49:32;50.10;;;25.65;;
56999;SDS011;42891;50.006;21.964;2023-03-13T15:53:33;35.97;;;18.92;;
56999;SDS011;42891;50.006;21.964;2023-03-13T15:57:37;47.05;;;21.90;;
56999;SDS011;42891;50.006;21.964;2023-03-13T16:01:45;24.73;;;16.10;;
56999;SDS011;42891;50.006;21.964;2023-03-13T16:05:47;20.65;;;14.57;;
56999;SDS011;42891;50.006;21.964;2023-03-13T16:09:48;19.38;;;12.45;;
56999;SDS011;42891;50.006;21.964;2023-03-13T16:13:48;15.50;;;10.83;;
56999;SDS011;42891;50.006;21.964;2023-03-13T16:17:49;17.98;;;11.00;;
56999;SDS011;42891;50.006;21.964;2023-03-13T16:21:49;17.95;;;10.63;;
56999;SDS011;42891;50.006;21.964;2023-03-13T16:25:51;16.42;;;10.20;;
56999;SDS011;42891;50.006;21.964;2023-03-13T16:29:51;21.77;;;13.73;;
56999;SDS011;42891;50.006;21.964;2023-03-13T16:33:52;15.17;;;9.47;;
56999;SDS011;42891;50.006;21.964;2023-03-13T16:37:54;17.92;;;11.32;;
56999;SDS011;42891;50.006;21.964;2023-03-13T16:41:55;18.75;;;11.70;;
56999;SDS011;42891;50.006;21.964;2023-03-13T16:45:55;17.73;;;10.43;;
56999;SDS011;42891;50.006;21.964;2023-03-13T16:49:56;16.73;;;9.65;;
56999;SDS011;42891;50.006;21.964;2023-03-13T16:53:56;15.63;;;10.18;;
56999;SDS011;42891;50.006;21.964;2023-03-13T16:58:02;17.40;;;10.82;;
56999;SDS011;42891;50.006;21.964;2023-03-13T17:02:03;15.75;;;10.63;;
56999;SDS011;42891;50.006;21.964;2023-03-13T17:06:03;23.30;;;13.15;;
56999;SDS011;42891;50.006;21.964;2023-03-13T17:10:11;21.05;;;12.18;;
56999;SDS011;42891;50.006;21.964;2023-03-13T17:14:16;22.90;;;12.27;;
56999;SDS011;42891;50.006;21.964;2023-03-13T17:18:17;18.83;;;10.77;;
56999;SDS011;42891;50.006;21.964;2023-03-13T17:22:17;18.58;;;11.25;;
56999;SDS011;42891;50.006;21.964;2023-03-13T17:26:19;17.55;;;9.85;;
56999;SDS011;42891;50.006;21.964;2023-03-13T17:34:23;18.55;;;9.18;;
56999;SDS011;42891;50.006;21.964;2023-03-13T17:38:26;13.93;;;8.90;;
56999;SDS011;42891;50.006;21.964;2023-03-13T17:42:26;15.63;;;8.85;;
56999;SDS011;42891;50.006;21.964;2023-03-13T17:46:39;16.50;;;10.60;;
56999;SDS011;42891;50.006;21.964;2023-03-13T17:50:41;14.50;;;8.20;;
56999;SDS011;42891;50.006;21.964;2023-03-13T17:54:42;14.77;;;9.07;;
56999;SDS011;42891;50.006;21.964;2023-03-13T17:58:43;12.93;;;8.73;;
56999;SDS011;42891;50.006;21.964;2023-03-13T18:02:43;14.88;;;8.70;;
56999;SDS011;42891;50.006;21.964;2023-03-13T18:06:45;12.33;;;7.80;;
56999;SDS011;42891;50.006;21.964;2023-03-13T18:10:47;14.63;;;9.43;;
56999;SDS011;42891;50.006;21.964;2023-03-13T18:14:47;17.33;;;9.03;;
56999;SDS011;42891;50.006;21.964;2023-03-13T18:18:48;15.37;;;9.33;;
56999;SDS011;42891;50.006;21.964;2023-03-13T18:22:48;13.23;;;8.73;;
56999;SDS011;42891;50.006;21.964;2023-03-13T18:26:49;25.77;;;17.77;;
56999;SDS011;42891;50.006;21.964;2023-03-13T18:30:49;19.67;;;11.13;;
56999;SDS011;42891;50.006;21.964;2023-03-13T18:34:49;15.73;;;9.15;;
56999;SDS011;42891;50.006;21.964;2023-03-13T18:38:50;13.80;;;8.50;;
56999;SDS011;42891;50.006;21.964;2023-03-13T18:42:50;18.25;;;9.75;;
56999;SDS011;42891;50.006;21.964;2023-03-13T18:46:51;11.23;;;7.63;;
56999;SDS011;42891;50.006;21.964;2023-03-13T18:50:51;10.75;;;7.32;;
56999;SDS011;42891;50.006;21.964;2023-03-13T18:54:51;10.43;;;6.80;;
56999;SDS011;42891;50.006;21.964;2023-03-13T18:58:52;21.67;;;12.18;;
56999;SDS011;42891;50.006;21.964;2023-03-13T19:02:54;12.82;;;7.25;;
56999;SDS011;42891;50.006;21.964;2023-03-13T19:06:54;16.40;;;8.00;;
56999;SDS011;42891;50.006;21.964;2023-03-13T19:10:54;38.27;;;17.90;;
56999;SDS011;42891;50.006;21.964;2023-03-13T19:14:55;12.70;;;8.37;;
56999;SDS011;42891;50.006;21.964;2023-03-13T19:18:55;10.07;;;7.70;;
56999;SDS011;42891;50.006;21.964;2023-03-13T19:22:57;13.15;;;7.72;;
56999;SDS011;42891;50.006;21.964;2023-03-13T19:26:59;12.75;;;7.43;;
56999;SDS011;42891;50.006;21.964;2023-03-13T19:30:59;16.08;;;8.85;;
56999;SDS011;42891;50.006;21.964;2023-03-13T19:35:00;13.50;;;9.25;;
56999;SDS011;42891;50.006;21.964;2023-03-13T19:39:00;20.43;;;11.20;;
56999;SDS011;42891;50.006;21.964;2023-03-13T19:43:00;15.45;;;8.20;;
56999;SDS011;42891;50.006;21.964;2023-03-13T19:47:00;13.53;;;7.73;;
56999;SDS011;42891;50.006;21.964;2023-03-13T19:51:02;11.80;;;7.47;;
56999;SDS011;42891;50.006;21.964;2023-03-13T19:55:03;11.55;;;7.30;;
56999;SDS011;42891;50.006;21.964;2023-03-13T19:59:04;12.82;;;7.57;;
56999;SDS011;42891;50.006;21.964;2023-03-13T20:03:06;13.70;;;7.43;;
56999;SDS011;42891;50.006;21.964;2023-03-13T20:07:06;14.82;;;8.30;;
56999;SDS011;42891;50.006;21.964;2023-03-13T20:11:07;12.80;;;8.02;;
56999;SDS011;42891;50.006;21.964;2023-03-13T20:15:07;10.88;;;7.95;;
56999;SDS011;42891;50.006;21.964;2023-03-13T20:19:08;10.50;;;7.55;;
56999;SDS011;42891;50.006;21.964;2023-03-13T20:23:09;9.80;;;7.03;;
56999;SDS011;42891;50.006;21.964;2023-03-13T20:27:09;13.07;;;8.10;;
56999;SDS011;42891;50.006;21.964;2023-03-13T20:31:10;10.77;;;7.17;;
56999;SDS011;42891;50.006;21.964;2023-03-13T20:35:11;13.35;;;8.07;;
56999;SDS011;42891;50.006;21.964;2023-03-13T20:39:13;12.73;;;7.65;;
56999;SDS011;42891;50.006;21.964;2023-03-13T20:43:13;11.43;;;7.47;;
56999;SDS011;42891;50.006;21.964;2023-03-13T20:47:13;10.47;;;7.20;;
56999;SDS011;42891;50.006;21.964;2023-03-13T20:51:14;10.07;;;7.13;;
56999;SDS011;42891;50.006;21.964;2023-03-13T20:55:15;11.18;;;8.63;;
56999;SDS011;42891;50.006;21.964;2023-03-13T20:59:16;14.68;;;8.10;;
56999;SDS011;42891;50.006;21.964;2023-03-13T21:03:16;13.47;;;8.00;;
56999;SDS011;42891;50.006;21.964;2023-03-13T21:07:19;14.13;;;7.25;;
56999;SDS011;42891;50.006;21.964;2023-03-13T21:11:20;10.50;;;7.00;;
56999;SDS011;42891;50.006;21.964;2023-03-13T21:15:21;9.50;;;6.70;;
56999;SDS011;42891;50.006;21.964;2023-03-13T21:19:22;8.48;;;6.88;;
56999;SDS011;42891;50.006;21.964;2023-03-13T21:23:22;12.60;;;7.20;;
56999;SDS011;42891;50.006;21.964;2023-03-13T21:27:22;10.50;;;7.40;;
56999;SDS011;42891;50.006;21.964;2023-03-13T21:31:22;27.37;;;12.80;;
56999;SDS011;42891;50.006;21.964;2023-03-13T21:35:23;12.57;;;6.72;;
56999;SDS011;42891;50.006;21.964;2023-03-13T21:39:23;13.00;;;7.90;;
56999;SDS011;42891;50.006;21.964;2023-03-13T21:43:23;9.73;;;7.15;;
56999;SDS011;42891;50.006;21.964;2023-03-13T21:47:27;10.57;;;7.30;;
56999;SDS011;42891;50.006;21.964;2023-03-13T21:51:27;8.75;;;6.00;;
56999;SDS011;42891;50.006;21.964;2023-03-13T21:55:28;9.85;;;6.03;;
56999;SDS011;42891;50.006;21.964;2023-03-13T21:59:28;10.10;;;7.32;;
56999;SDS011;42891;50.006;21.964;2023-03-13T22:03:29;9.93;;;6.38;;
56999;SDS011;42891;50.006;21.964;2023-03-13T22:07:30;8.73;;;6.88;;
56999;SDS011;42891;50.006;21.964;2023-03-13T22:11:31;9.07;;;6.80;;
56999;SDS011;42891;50.006;21.964;2023-03-13T22:15:31;10.40;;;6.32;;
56999;SDS011;42891;50.006;21.964;2023-03-13T22:19:31;10.80;;;7.18;;
56999;SDS011;42891;50.006;21.964;2023-03-13T22:23:33;11.43;;;6.82;;
56999;SDS011;42891;50.006;21.964;2023-03-13T22:27:33;9.05;;;6.35;;
56999;SDS011;42891;50.006;21.964;2023-03-13T22:31:33;10.48;;;6.53;;
56999;SDS011;42891;50.006;21.964;2023-03-13T22:35:35;9.93;;;6.38;;
56999;SDS011;42891;50.006;21.964;2023-03-13T22:39:36;8.75;;;6.07;;
56999;SDS011;42891;50.006;21.964;2023-03-13T22:43:37;8.95;;;6.60;;
56999;SDS011;42891;50.006;21.964;2023-03-13T22:47:37;9.80;;;6.45;;
56999;SDS011;42891;50.006;21.964;2023-03-13T22:51:37;9.83;;;6.30;;
56999;SDS011;42891;50.006;21.964;2023-03-13T22:55:37;9.60;;;5.80;;
56999;SDS011;42891;50.006;21.964;2023-03-13T22:59:38;11.05;;;6.75;;
56999;SDS011;42891;50.006;21.964;2023-03-13T23:03:38;8.30;;;6.00;;
56999;SDS011;42891;50.006;21.964;2023-03-13T23:07:39;11.88;;;6.47;;
56999;SDS011;42891;50.006;21.964;2023-03-13T23:11:39;9.18;;;6.03;;
56999;SDS011;42891;50.006;21.964;2023-03-13T23:15:40;10.60;;;6.15;;
56999;SDS011;42891;50.006;21.964;2023-03-13T23:19:40;8.50;;;5.65;;
56999;SDS011;42891;50.006;21.964;2023-03-13T23:23:41;9.73;;;6.00;;
56999;SDS011;42891;50.006;21.964;2023-03-13T23:27:41;10.27;;;6.03;;
56999;SDS011;42891;50.006;21.964;2023-03-13T23:31:42;8.57;;;5.35;;
56999;SDS011;42891;50.006;21.964;2023-03-13T23:35:42;8.77;;;5.22;;
56999;SDS011;42891;50.006;21.964;2023-03-13T23:39:43;8.93;;;5.60;;
56999;SDS011;42891;50.006;21.964;2023-03-13T23:43:44;7.83;;;5.60;;
56999;SDS011;42891;50.006;21.964;2023-03-13T23:47:44;7.50;;;5.50;;
56999;SDS011;42891;50.006;21.964;2023-03-13T23:51:45;7.95;;;5.80;;
56999;SDS011;42891;50.006;21.964;2023-03-13T23:55:45;8.57;;;5.63;;
56999;SDS011;42891;50.006;21.964;2023-03-13T23:59:45;7.50;;;5.60;;
